Mostar, Bosnia and Herzegovina
Current Conditions -  °F | °C
As of 2:30 PM on Sunday 25 Jan 2015 (Local Time) from LQMO Reporting Station
Scattered Clouds Scattered Clouds  
Wind Chill: 50°   Ceiling: Unl
Heat Index: 50°   Visibility: 6mi
Dew Point: 27°   Wind: 7mph
Humidity: 40%   Direction: 330°NNW
Pressure: 29.85"   Gusts: NA
Location:  43.34°N, 17.81°E
Report Text: LQMO 251230Z 33006KT 280V030 9999 FEW050 SCT075 10/M03 Q1011
Loading
Personal Weather Stations






























Interactive Weather Map New forecast layout! Learn more

10-Day Weather Forecast

Advertisements
Track Severe Weather on mobile